sensor_id;sensor_type;location;lat;lon;timestamp;P1;durP1;ratioP1;P2;durP2;ratioP2
29412;SDS011;16389;50.126;8.450;2024-02-21T00:02:21;10.18;;;3.95;;
29412;SDS011;16389;50.126;8.450;2024-02-21T00:04:46;7.20;;;3.10;;
29412;SDS011;16389;50.126;8.450;2024-02-21T00:07:12;13.02;;;3.65;;
29412;SDS011;16389;50.126;8.450;2024-02-21T00:09:38;9.82;;;4.28;;
29412;SDS011;16389;50.126;8.450;2024-02-21T00:12:03;7.85;;;3.55;;
29412;SDS011;16389;50.126;8.450;2024-02-21T00:14:30;8.10;;;3.47;;
29412;SDS011;16389;50.126;8.450;2024-02-21T00:16:56;7.22;;;4.22;;
29412;SDS011;16389;50.126;8.450;2024-02-21T00:19:21;14.30;;;4.55;;
29412;SDS011;16389;50.126;8.450;2024-02-21T00:21:47;10.75;;;4.65;;
29412;SDS011;16389;50.126;8.450;2024-02-21T00:24:12;9.63;;;5.07;;
29412;SDS011;16389;50.126;8.450;2024-02-21T00:26:39;15.75;;;4.25;;
29412;SDS011;16389;50.126;8.450;2024-02-21T00:29:05;10.52;;;4.75;;
29412;SDS011;16389;50.126;8.450;2024-02-21T00:31:31;9.75;;;4.50;;
29412;SDS011;16389;50.126;8.450;2024-02-21T00:33:57;10.77;;;4.07;;
29412;SDS011;16389;50.126;8.450;2024-02-21T00:36:23;11.27;;;4.32;;
29412;SDS011;16389;50.126;8.450;2024-02-21T00:38:49;9.00;;;4.85;;
29412;SDS011;16389;50.126;8.450;2024-02-21T00:41:15;5.78;;;3.95;;
29412;SDS011;16389;50.126;8.450;2024-02-21T00:43:41;14.65;;;4.55;;
29412;SDS011;16389;50.126;8.450;2024-02-21T00:46:07;13.43;;;4.38;;
29412;SDS011;16389;50.126;8.450;2024-02-21T00:48:33;11.48;;;3.92;;
29412;SDS011;16389;50.126;8.450;2024-02-21T00:51:00;9.55;;;4.65;;
29412;SDS011;16389;50.126;8.450;2024-02-21T00:53:26;15.05;;;5.80;;
29412;SDS011;16389;50.126;8.450;2024-02-21T00:55:52;11.07;;;4.70;;
29412;SDS011;16389;50.126;8.450;2024-02-21T00:58:18;17.52;;;5.00;;
29412;SDS011;16389;50.126;8.450;2024-02-21T01:00:44;8.35;;;5.15;;
29412;SDS011;16389;50.126;8.450;2024-02-21T01:03:10;15.52;;;5.35;;
29412;SDS011;16389;50.126;8.450;2024-02-21T01:05:36;28.52;;;6.43;;
29412;SDS011;16389;50.126;8.450;2024-02-21T01:08:01;9.40;;;4.60;;
29412;SDS011;16389;50.126;8.450;2024-02-21T01:10:27;17.70;;;5.82;;
29412;SDS011;16389;50.126;8.450;2024-02-21T01:12:52;13.45;;;5.55;;
29412;SDS011;16389;50.126;8.450;2024-02-21T01:15:18;10.50;;;4.50;;
29412;SDS011;16389;50.126;8.450;2024-02-21T01:17:44;8.57;;;5.28;;
29412;SDS011;16389;50.126;8.450;2024-02-21T01:20:09;8.73;;;4.93;;
29412;SDS011;16389;50.126;8.450;2024-02-21T01:22:35;11.60;;;4.72;;
29412;SDS011;16389;50.126;8.450;2024-02-21T01:25:01;15.90;;;4.97;;
29412;SDS011;16389;50.126;8.450;2024-02-21T01:27:26;12.80;;;5.70;;
29412;SDS011;16389;50.126;8.450;2024-02-21T01:29:52;9.38;;;4.93;;
29412;SDS011;16389;50.126;8.450;2024-02-21T01:32:18;16.70;;;5.55;;
29412;SDS011;16389;50.126;8.450;2024-02-21T01:34:43;13.63;;;4.93;;
29412;SDS011;16389;50.126;8.450;2024-02-21T01:37:09;13.35;;;6.03;;
29412;SDS011;16389;50.126;8.450;2024-02-21T01:39:34;14.68;;;4.75;;
29412;SDS011;16389;50.126;8.450;2024-02-21T01:42:00;14.80;;;5.90;;
29412;SDS011;16389;50.126;8.450;2024-02-21T01:44:26;13.38;;;5.85;;
29412;SDS011;16389;50.126;8.450;2024-02-21T01:46:52;10.90;;;5.18;;
29412;SDS011;16389;50.126;8.450;2024-02-21T01:49:20;14.23;;;6.22;;
29412;SDS011;16389;50.126;8.450;2024-02-21T01:51:46;12.27;;;6.07;;
29412;SDS011;16389;50.126;8.450;2024-02-21T01:54:13;17.52;;;6.30;;
29412;SDS011;16389;50.126;8.450;2024-02-21T01:56:41;11.10;;;5.55;;
29412;SDS011;16389;50.126;8.450;2024-02-21T01:59:08;9.77;;;5.82;;
29412;SDS011;16389;50.126;8.450;2024-02-21T02:01:33;14.90;;;5.55;;
29412;SDS011;16389;50.126;8.450;2024-02-21T02:03:59;12.43;;;5.95;;
29412;SDS011;16389;50.126;8.450;2024-02-21T02:06:25;7.30;;;4.47;;
29412;SDS011;16389;50.126;8.450;2024-02-21T02:08:50;14.23;;;4.72;;
29412;SDS011;16389;50.126;8.450;2024-02-21T02:11:16;10.23;;;5.43;;
29412;SDS011;16389;50.126;8.450;2024-02-21T02:13:42;9.63;;;4.57;;
29412;SDS011;16389;50.126;8.450;2024-02-21T02:16:08;14.40;;;5.47;;
29412;SDS011;16389;50.126;8.450;2024-02-21T02:18:33;15.70;;;4.82;;
29412;SDS011;16389;50.126;8.450;2024-02-21T02:20:59;17.40;;;5.53;;
29412;SDS011;16389;50.126;8.450;2024-02-21T02:23:29;13.57;;;5.18;;
29412;SDS011;16389;50.126;8.450;2024-02-21T02:25:58;13.05;;;4.85;;
29412;SDS011;16389;50.126;8.450;2024-02-21T02:28:25;11.68;;;5.43;;
29412;SDS011;16389;50.126;8.450;2024-02-21T02:30:51;13.25;;;5.20;;
29412;SDS011;16389;50.126;8.450;2024-02-21T02:33:18;10.32;;;5.03;;
29412;SDS011;16389;50.126;8.450;2024-02-21T02:35:44;11.63;;;5.80;;
29412;SDS011;16389;50.126;8.450;2024-02-21T02:38:10;20.20;;;5.10;;
29412;SDS011;16389;50.126;8.450;2024-02-21T02:40:40;14.55;;;6.57;;
29412;SDS011;16389;50.126;8.450;2024-02-21T02:43:06;10.40;;;5.03;;
29412;SDS011;16389;50.126;8.450;2024-02-21T02:45:33;7.72;;;4.30;;
29412;SDS011;16389;50.126;8.450;2024-02-21T02:47:59;11.43;;;4.82;;
29412;SDS011;16389;50.126;8.450;2024-02-21T02:50:25;11.07;;;4.90;;
29412;SDS011;16389;50.126;8.450;2024-02-21T02:52:52;9.48;;;5.15;;
29412;SDS011;16389;50.126;8.450;2024-02-21T02:55:18;16.48;;;6.13;;
29412;SDS011;16389;50.126;8.450;2024-02-21T02:57:44;11.35;;;6.00;;
29412;SDS011;16389;50.126;8.450;2024-02-21T03:00:11;6.78;;;4.38;;
29412;SDS011;16389;50.126;8.450;2024-02-21T03:02:38;7.35;;;4.60;;
29412;SDS011;16389;50.126;8.450;2024-02-21T03:05:11;7.90;;;4.53;;
29412;SDS011;16389;50.126;8.450;2024-02-21T03:07:44;9.18;;;3.85;;
29412;SDS011;16389;50.126;8.450;2024-02-21T03:10:11;12.98;;;4.75;;
29412;SDS011;16389;50.126;8.450;2024-02-21T03:12:37;9.68;;;4.70;;
29412;SDS011;16389;50.126;8.450;2024-02-21T03:15:03;9.65;;;4.80;;
29412;SDS011;16389;50.126;8.450;2024-02-21T03:17:30;12.85;;;5.32;;
29412;SDS011;16389;50.126;8.450;2024-02-21T03:19:57;9.45;;;5.63;;
29412;SDS011;16389;50.126;8.450;2024-02-21T03:22:25;7.10;;;4.03;;
29412;SDS011;16389;50.126;8.450;2024-02-21T03:24:51;23.38;;;4.70;;
29412;SDS011;16389;50.126;8.450;2024-02-21T03:27:17;16.02;;;4.75;;
29412;SDS011;16389;50.126;8.450;2024-02-21T03:29:42;7.72;;;4.45;;
29412;SDS011;16389;50.126;8.450;2024-02-21T03:32:08;13.50;;;4.70;;
29412;SDS011;16389;50.126;8.450;2024-02-21T03:34:35;20.23;;;5.07;;
29412;SDS011;16389;50.126;8.450;2024-02-21T03:37:00;13.88;;;5.63;;
29412;SDS011;16389;50.126;8.450;2024-02-21T03:39:27;15.32;;;5.15;;
29412;SDS011;16389;50.126;8.450;2024-02-21T03:41:52;15.90;;;5.25;;
29412;SDS011;16389;50.126;8.450;2024-02-21T03:44:18;9.70;;;4.90;;
29412;SDS011;16389;50.126;8.450;2024-02-21T03:46:44;15.88;;;6.93;;
29412;SDS011;16389;50.126;8.450;2024-02-21T03:49:09;11.98;;;6.40;;
29412;SDS011;16389;50.126;8.450;2024-02-21T03:51:35;12.20;;;5.10;;
29412;SDS011;16389;50.126;8.450;2024-02-21T03:54:00;10.43;;;5.20;;
29412;SDS011;16389;50.126;8.450;2024-02-21T03:56:26;11.05;;;5.25;;
29412;SDS011;16389;50.126;8.450;2024-02-21T03:58:52;9.80;;;4.88;;
29412;SDS011;16389;50.126;8.450;2024-02-21T04:01:18;10.88;;;4.85;;
29412;SDS011;16389;50.126;8.450;2024-02-21T04:03:44;12.20;;;5.15;;
29412;SDS011;16389;50.126;8.450;2024-02-21T04:06:09;9.18;;;4.70;;
29412;SDS011;16389;50.126;8.450;2024-02-21T04:08:35;11.45;;;4.70;;
29412;SDS011;16389;50.126;8.450;2024-02-21T04:11:01;10.70;;;4.30;;
29412;SDS011;16389;50.126;8.450;2024-02-21T04:13:27;18.48;;;5.43;;
29412;SDS011;16389;50.126;8.450;2024-02-21T04:15:52;11.38;;;5.13;;
29412;SDS011;16389;50.126;8.450;2024-02-21T04:18:18;8.98;;;4.78;;
29412;SDS011;16389;50.126;8.450;2024-02-21T04:20:43;18.25;;;5.60;;
29412;SDS011;16389;50.126;8.450;2024-02-21T04:23:09;16.58;;;4.93;;
29412;SDS011;16389;50.126;8.450;2024-02-21T04:25:35;11.52;;;5.25;;
29412;SDS011;16389;50.126;8.450;2024-02-21T04:28:01;12.05;;;4.97;;
29412;SDS011;16389;50.126;8.450;2024-02-21T04:30:27;10.95;;;5.18;;
29412;SDS011;16389;50.126;8.450;2024-02-21T04:32:53;20.92;;;5.25;;
29412;SDS011;16389;50.126;8.450;2024-02-21T04:35:19;15.40;;;6.10;;
29412;SDS011;16389;50.126;8.450;2024-02-21T04:37:44;13.27;;;6.20;;
29412;SDS011;16389;50.126;8.450;2024-02-21T04:40:10;14.75;;;5.60;;
29412;SDS011;16389;50.126;8.450;2024-02-21T04:42:36;10.95;;;5.75;;
29412;SDS011;16389;50.126;8.450;2024-02-21T04:45:01;10.70;;;6.07;;
29412;SDS011;16389;50.126;8.450;2024-02-21T04:47:27;13.35;;;5.88;;
29412;SDS011;16389;50.126;8.450;2024-02-21T04:49:53;10.57;;;5.85;;
29412;SDS011;16389;50.126;8.450;2024-02-21T04:52:19;10.07;;;5.68;;
29412;SDS011;16389;50.126;8.450;2024-02-21T04:54:46;16.25;;;5.63;;
29412;SDS011;16389;50.126;8.450;2024-02-21T04:57:12;14.68;;;6.63;;
29412;SDS011;16389;50.126;8.450;2024-02-21T04:59:41;10.43;;;6.22;;
29412;SDS011;16389;50.126;8.450;2024-02-21T05:02:10;14.27;;;5.85;;
29412;SDS011;16389;50.126;8.450;2024-02-21T05:04:37;11.77;;;5.90;;
29412;SDS011;16389;50.126;8.450;2024-02-21T05:07:25;11.45;;;7.03;;
29412;SDS011;16389;50.126;8.450;2024-02-21T05:09:54;9.57;;;7.15;;
29412;SDS011;16389;50.126;8.450;2024-02-21T05:12:20;15.35;;;7.15;;
29412;SDS011;16389;50.126;8.450;2024-02-21T05:14:45;12.50;;;6.13;;
29412;SDS011;16389;50.126;8.450;2024-02-21T05:17:14;14.98;;;6.60;;
29412;SDS011;16389;50.126;8.450;2024-02-21T05:19:40;10.52;;;5.80;;
29412;SDS011;16389;50.126;8.450;2024-02-21T05:22:06;9.90;;;6.13;;
29412;SDS011;16389;50.126;8.450;2024-02-21T05:24:31;16.88;;;6.53;;
29412;SDS011;16389;50.126;8.450;2024-02-21T05:26:57;13.63;;;5.45;;
29412;SDS011;16389;50.126;8.450;2024-02-21T05:29:22;9.20;;;5.18;;
29412;SDS011;16389;50.126;8.450;2024-02-21T05:34:20;12.90;;;6.03;;
29412;SDS011;16389;50.126;8.450;2024-02-21T05:36:47;7.95;;;5.88;;
29412;SDS011;16389;50.126;8.450;2024-02-21T05:39:14;18.42;;;7.00;;
29412;SDS011;16389;50.126;8.450;2024-02-21T05:41:41;12.57;;;6.95;;
29412;SDS011;16389;50.126;8.450;2024-02-21T05:44:07;10.40;;;6.28;;
29412;SDS011;16389;50.126;8.450;2024-02-21T05:46:33;9.02;;;5.47;;
29412;SDS011;16389;50.126;8.450;2024-02-21T05:48:58;14.07;;;6.53;;
29412;SDS011;16389;50.126;8.450;2024-02-21T05:51:24;15.75;;;5.75;;
29412;SDS011;16389;50.126;8.450;2024-02-21T05:53:49;11.35;;;4.95;;
29412;SDS011;16389;50.126;8.450;2024-02-21T05:56:16;10.65;;;6.05;;
29412;SDS011;16389;50.126;8.450;2024-02-21T05:58:43;9.13;;;5.10;;
29412;SDS011;16389;50.126;8.450;2024-02-21T06:01:09;9.82;;;5.30;;
29412;SDS011;16389;50.126;8.450;2024-02-21T06:03:35;10.20;;;5.00;;
29412;SDS011;16389;50.126;8.450;2024-02-21T06:06:01;10.25;;;5.30;;
29412;SDS011;16389;50.126;8.450;2024-02-21T06:08:27;8.07;;;4.22;;
29412;SDS011;16389;50.126;8.450;2024-02-21T06:10:53;12.05;;;5.38;;
29412;SDS011;16389;50.126;8.450;2024-02-21T06:13:28;11.15;;;6.72;;
29412;SDS011;16389;50.126;8.450;2024-02-21T06:15:54;15.18;;;6.40;;
29412;SDS011;16389;50.126;8.450;2024-02-21T06:18:19;17.45;;;5.43;;
29412;SDS011;16389;50.126;8.450;2024-02-21T06:20:46;11.07;;;6.85;;
29412;SDS011;16389;50.126;8.450;2024-02-21T06:23:12;14.10;;;7.03;;
29412;SDS011;16389;50.126;8.450;2024-02-21T06:25:38;11.13;;;6.13;;
29412;SDS011;16389;50.126;8.450;2024-02-21T06:28:04;14.35;;;6.70;;
29412;SDS011;16389;50.126;8.450;2024-02-21T06:30:31;12.45;;;6.03;;
29412;SDS011;16389;50.126;8.450;2024-02-21T06:32:56;9.93;;;5.85;;
29412;SDS011;16389;50.126;8.450;2024-02-21T06:35:22;10.05;;;5.60;;
29412;SDS011;16389;50.126;8.450;2024-02-21T06:37:49;11.93;;;6.53;;
29412;SDS011;16389;50.126;8.450;2024-02-21T06:40:20;10.93;;;7.18;;
29412;SDS011;16389;50.126;8.450;2024-02-21T06:42:46;10.48;;;7.07;;
29412;SDS011;16389;50.126;8.450;2024-02-21T06:45:12;13.07;;;7.10;;
29412;SDS011;16389;50.126;8.450;2024-02-21T06:47:38;9.23;;;6.60;;
29412;SDS011;16389;50.126;8.450;2024-02-21T06:50:04;15.73;;;5.82;;
29412;SDS011;16389;50.126;8.450;2024-02-21T06:52:29;11.20;;;6.28;;
29412;SDS011;16389;50.126;8.450;2024-02-21T06:54:56;12.32;;;6.60;;
29412;SDS011;16389;50.126;8.450;2024-02-21T06:57:22;16.17;;;6.63;;
29412;SDS011;16389;50.126;8.450;2024-02-21T06:59:48;8.80;;;6.03;;
29412;SDS011;16389;50.126;8.450;2024-02-21T07:02:14;14.10;;;8.02;;
29412;SDS011;16389;50.126;8.450;2024-02-21T07:04:40;10.98;;;7.38;;
29412;SDS011;16389;50.126;8.450;2024-02-21T07:07:07;13.93;;;7.93;;
29412;SDS011;16389;50.126;8.450;2024-02-21T07:09:33;16.17;;;6.85;;
29412;SDS011;16389;50.126;8.450;2024-02-21T07:11:59;8.30;;;7.47;;
29412;SDS011;16389;50.126;8.450;2024-02-21T07:14:25;10.88;;;7.90;;
29412;SDS011;16389;50.126;8.450;2024-02-21T07:16:51;9.52;;;5.90;;
29412;SDS011;16389;50.126;8.450;2024-02-21T07:19:17;10.52;;;6.13;;
29412;SDS011;16389;50.126;8.450;2024-02-21T07:21:43;10.18;;;6.10;;
29412;SDS011;16389;50.126;8.450;2024-02-21T07:24:09;14.15;;;7.82;;
29412;SDS011;16389;50.126;8.450;2024-02-21T07:26:36;11.45;;;7.93;;
29412;SDS011;16389;50.126;8.450;2024-02-21T07:29:02;21.33;;;7.93;;
29412;SDS011;16389;50.126;8.450;2024-02-21T07:31:28;14.30;;;8.07;;
29412;SDS011;16389;50.126;8.450;2024-02-21T07:33:54;13.80;;;7.57;;
29412;SDS011;16389;50.126;8.450;2024-02-21T07:36:29;10.10;;;7.88;;
29412;SDS011;16389;50.126;8.450;2024-02-21T07:38:55;10.73;;;8.15;;
29412;SDS011;16389;50.126;8.450;2024-02-21T07:41:21;12.55;;;8.13;;
29412;SDS011;16389;50.126;8.450;2024-02-21T07:43:47;9.40;;;8.35;;
29412;SDS011;16389;50.126;8.450;2024-02-21T07:46:16;13.88;;;8.50;;
29412;SDS011;16389;50.126;8.450;2024-02-21T07:48:43;13.05;;;8.90;;
29412;SDS011;16389;50.126;8.450;2024-02-21T07:51:10;10.18;;;8.77;;
29412;SDS011;16389;50.126;8.450;2024-02-21T07:53:36;18.17;;;9.85;;
29412;SDS011;16389;50.126;8.450;2024-02-21T07:56:02;11.90;;;9.57;;
29412;SDS011;16389;50.126;8.450;2024-02-21T07:58:28;14.05;;;9.52;;
29412;SDS011;16389;50.126;8.450;2024-02-21T08:00:54;16.80;;;9.63;;
29412;SDS011;16389;50.126;8.450;2024-02-21T08:03:21;11.32;;;9.93;;
29412;SDS011;16389;50.126;8.450;2024-02-21T08:05:47;14.80;;;10.43;;
29412;SDS011;16389;50.126;8.450;2024-02-21T08:08:13;14.98;;;8.95;;
29412;SDS011;16389;50.126;8.450;2024-02-21T08:10:43;15.40;;;9.75;;
29412;SDS011;16389;50.126;8.450;2024-02-21T08:13:09;13.70;;;10.20;;
29412;SDS011;16389;50.126;8.450;2024-02-21T08:15:35;16.90;;;10.63;;
29412;SDS011;16389;50.126;8.450;2024-02-21T08:18:04;18.45;;;10.05;;
29412;SDS011;16389;50.126;8.450;2024-02-21T08:20:30;12.98;;;9.45;;
29412;SDS011;16389;50.126;8.450;2024-02-21T08:22:56;14.23;;;8.75;;
29412;SDS011;16389;50.126;8.450;2024-02-21T08:25:22;14.07;;;8.85;;
29412;SDS011;16389;50.126;8.450;2024-02-21T08:27:48;14.20;;;8.02;;
29412;SDS011;16389;50.126;8.450;2024-02-21T08:30:14;13.73;;;7.80;;
29412;SDS011;16389;50.126;8.450;2024-02-21T08:32:40;10.55;;;7.20;;
29412;SDS011;16389;50.126;8.450;2024-02-21T08:35:06;11.55;;;7.53;;
29412;SDS011;16389;50.126;8.450;2024-02-21T08:37:32;11.23;;;7.43;;
29412;SDS011;16389;50.126;8.450;2024-02-21T08:39:58;9.95;;;7.38;;
29412;SDS011;16389;50.126;8.450;2024-02-21T08:42:29;10.48;;;7.20;;
29412;SDS011;16389;50.126;8.450;2024-02-21T08:44:55;11.38;;;7.88;;
29412;SDS011;16389;50.126;8.450;2024-02-21T08:47:21;12.35;;;7.90;;
29412;SDS011;16389;50.126;8.450;2024-02-21T08:49:46;10.70;;;9.57;;
29412;SDS011;16389;50.126;8.450;2024-02-21T08:52:13;16.20;;;8.05;;
29412;SDS011;16389;50.126;8.450;2024-02-21T08:54:38;15.65;;;9.02;;
29412;SDS011;16389;50.126;8.450;2024-02-21T08:57:04;17.75;;;11.00;;
29412;SDS011;16389;50.126;8.450;2024-02-21T08:59:31;15.02;;;10.77;;
29412;SDS011;16389;50.126;8.450;2024-02-21T09:01:57;15.85;;;11.05;;
29412;SDS011;16389;50.126;8.450;2024-02-21T09:04:23;14.00;;;10.07;;
29412;SDS011;16389;50.126;8.450;2024-02-21T09:06:48;15.63;;;9.68;;
29412;SDS011;16389;50.126;8.450;2024-02-21T09:09:14;17.23;;;11.10;;
29412;SDS011;16389;50.126;8.450;2024-02-21T09:11:40;15.40;;;9.63;;
29412;SDS011;16389;50.126;8.450;2024-02-21T09:14:05;18.02;;;10.13;;
29412;SDS011;16389;50.126;8.450;2024-02-21T09:16:31;16.60;;;10.32;;
29412;SDS011;16389;50.126;8.450;2024-02-21T09:18:57;12.15;;;8.95;;
29412;SDS011;16389;50.126;8.450;2024-02-21T09:21:23;16.77;;;8.98;;
29412;SDS011;16389;50.126;8.450;2024-02-21T09:23:48;15.02;;;8.93;;
29412;SDS011;16389;50.126;8.450;2024-02-21T09:26:14;16.25;;;9.50;;
29412;SDS011;16389;50.126;8.450;2024-02-21T09:28:42;15.48;;;8.13;;
29412;SDS011;16389;50.126;8.450;2024-02-21T09:31:08;14.88;;;8.70;;
29412;SDS011;16389;50.126;8.450;2024-02-21T09:33:33;12.13;;;7.95;;
29412;SDS011;16389;50.126;8.450;2024-02-21T09:35:59;10.75;;;6.45;;
29412;SDS011;16389;50.126;8.450;2024-02-21T09:38:25;7.68;;;5.70;;
29412;SDS011;16389;50.126;8.450;2024-02-21T09:41:37;10.10;;;6.57;;
29412;SDS011;16389;50.126;8.450;2024-02-21T09:43:38;10.18;;;5.60;;
29412;SDS011;16389;50.126;8.450;2024-02-21T09:46:05;14.98;;;5.53;;
29412;SDS011;16389;50.126;8.450;2024-02-21T09:51:02;10.07;;;4.97;;
29412;SDS011;16389;50.126;8.450;2024-02-21T09:53:28;11.65;;;5.75;;
29412;SDS011;16389;50.126;8.450;2024-02-21T09:55:55;6.63;;;5.00;;
29412;SDS011;16389;50.126;8.450;2024-02-21T09:58:23;9.32;;;5.50;;
29412;SDS011;16389;50.126;8.450;2024-02-21T10:00:51;8.13;;;5.60;;
29412;SDS011;16389;50.126;8.450;2024-02-21T10:03:17;10.98;;;5.45;;
29412;SDS011;16389;50.126;8.450;2024-02-21T10:05:46;13.68;;;5.45;;
29412;SDS011;16389;50.126;8.450;2024-02-21T10:10:45;19.40;;;4.45;;
29412;SDS011;16389;50.126;8.450;2024-02-21T10:13:23;8.13;;;4.47;;
29412;SDS011;16389;50.126;8.450;2024-02-21T10:15:59;7.57;;;4.85;;
29412;SDS011;16389;50.126;8.450;2024-02-21T10:18:25;7.72;;;4.63;;
29412;SDS011;16389;50.126;8.450;2024-02-21T10:21:01;6.72;;;4.22;;
29412;SDS011;16389;50.126;8.450;2024-02-21T10:23:27;7.78;;;4.68;;
29412;SDS011;16389;50.126;8.450;2024-02-21T10:25:53;11.93;;;4.45;;
29412;SDS011;16389;50.126;8.450;2024-02-21T10:28:19;7.78;;;3.55;;
29412;SDS011;16389;50.126;8.450;2024-02-21T10:30:51;9.23;;;5.20;;
29412;SDS011;16389;50.126;8.450;2024-02-21T10:33:17;5.53;;;3.88;;
29412;SDS011;16389;50.126;8.450;2024-02-21T10:35:47;5.47;;;2.97;;
29412;SDS011;16389;50.126;8.450;2024-02-21T10:38:14;5.40;;;3.08;;
29412;SDS011;16389;50.126;8.450;2024-02-21T10:40:40;6.18;;;3.08;;
29412;SDS011;16389;50.126;8.450;2024-02-21T10:43:07;8.75;;;3.83;;
29412;SDS011;16389;50.126;8.450;2024-02-21T10:45:36;12.93;;;4.43;;
29412;SDS011;16389;50.126;8.450;2024-02-21T10:50:28;5.35;;;2.78;;
29412;SDS011;16389;50.126;8.450;2024-02-21T10:52:59;6.63;;;3.15;;
29412;SDS011;16389;50.126;8.450;2024-02-21T10:55:30;9.25;;;3.33;;
29412;SDS011;16389;50.126;8.450;2024-02-21T10:57:57;6.97;;;3.17;;
29412;SDS011;16389;50.126;8.450;2024-02-21T11:00:23;7.97;;;3.22;;
29412;SDS011;16389;50.126;8.450;2024-02-21T11:02:55;7.32;;;2.90;;
29412;SDS011;16389;50.126;8.450;2024-02-21T11:05:21;3.95;;;3.00;;
29412;SDS011;16389;50.126;8.450;2024-02-21T11:07:47;8.15;;;2.90;;
29412;SDS011;16389;50.126;8.450;2024-02-21T11:10:20;4.45;;;3.00;;
29412;SDS011;16389;50.126;8.450;2024-02-21T11:12:47;3.92;;;2.42;;
29412;SDS011;16389;50.126;8.450;2024-02-21T11:15:13;4.63;;;2.90;;
29412;SDS011;16389;50.126;8.450;2024-02-21T11:17:39;4.55;;;2.70;;
29412;SDS011;16389;50.126;8.450;2024-02-21T11:20:12;4.88;;;2.65;;
29412;SDS011;16389;50.126;8.450;2024-02-21T11:22:41;4.93;;;2.75;;
29412;SDS011;16389;50.126;8.450;2024-02-21T11:25:08;6.95;;;2.67;;
29412;SDS011;16389;50.126;8.450;2024-02-21T11:27:37;4.53;;;2.90;;
29412;SDS011;16389;50.126;8.450;2024-02-21T11:30:05;6.93;;;3.50;;
29412;SDS011;16389;50.126;8.450;2024-02-21T11:32:31;5.85;;;2.63;;
29412;SDS011;16389;50.126;8.450;2024-02-21T11:37:27;7.63;;;3.08;;
29412;SDS011;16389;50.126;8.450;2024-02-21T11:39:54;4.38;;;2.63;;
29412;SDS011;16389;50.126;8.450;2024-02-21T11:42:20;5.50;;;3.17;;
29412;SDS011;16389;50.126;8.450;2024-02-21T11:44:46;6.60;;;2.95;;
29412;SDS011;16389;50.126;8.450;2024-02-21T11:47:13;5.82;;;3.17;;
29412;SDS011;16389;50.126;8.450;2024-02-21T11:49:44;3.70;;;2.58;;
29412;SDS011;16389;50.126;8.450;2024-02-21T11:52:11;8.27;;;3.00;;
29412;SDS011;16389;50.126;8.450;2024-02-21T11:54:37;5.00;;;2.60;;
29412;SDS011;16389;50.126;8.450;2024-02-21T11:57:03;4.15;;;2.88;;
29412;SDS011;16389;50.126;8.450;2024-02-21T11:59:32;5.88;;;2.40;;
29412;SDS011;16389;50.126;8.450;2024-02-21T12:01:59;5.20;;;3.05;;
29412;SDS011;16389;50.126;8.450;2024-02-21T12:04:25;6.00;;;2.22;;
29412;SDS011;16389;50.126;8.450;2024-02-21T12:06:54;5.30;;;2.08;;
29412;SDS011;16389;50.126;8.450;2024-02-21T12:09:22;5.87;;;2.10;;
29412;SDS011;16389;50.126;8.450;2024-02-21T12:11:56;8.38;;;3.05;;
29412;SDS011;16389;50.126;8.450;2024-02-21T12:14:22;5.85;;;2.70;;
29412;SDS011;16389;50.126;8.450;2024-02-21T12:16:50;6.25;;;2.17;;
29412;SDS011;16389;50.126;8.450;2024-02-21T12:19:16;5.90;;;2.22;;
29412;SDS011;16389;50.126;8.450;2024-02-21T12:21:42;4.68;;;1.83;;
29412;SDS011;16389;50.126;8.450;2024-02-21T12:24:13;6.00;;;2.42;;
29412;SDS011;16389;50.126;8.450;2024-02-21T12:26:40;3.38;;;2.38;;
29412;SDS011;16389;50.126;8.450;2024-02-21T12:29:06;5.78;;;2.35;;
29412;SDS011;16389;50.126;8.450;2024-02-21T12:31:34;4.63;;;2.17;;
29412;SDS011;16389;50.126;8.450;2024-02-21T12:34:00;6.03;;;2.42;;
29412;SDS011;16389;50.126;8.450;2024-02-21T12:36:26;5.05;;;3.20;;
29412;SDS011;16389;50.126;8.450;2024-02-21T12:38:52;7.25;;;2.30;;
29412;SDS011;16389;50.126;8.450;2024-02-21T12:41:18;6.15;;;2.00;;
29412;SDS011;16389;50.126;8.450;2024-02-21T12:43:44;5.82;;;2.45;;
29412;SDS011;16389;50.126;8.450;2024-02-21T12:46:10;7.18;;;3.55;;
29412;SDS011;16389;50.126;8.450;2024-02-21T12:48:36;4.97;;;2.50;;
29412;SDS011;16389;50.126;8.450;2024-02-21T12:51:02;5.88;;;2.10;;
29412;SDS011;16389;50.126;8.450;2024-02-21T12:53:27;4.85;;;2.08;;
29412;SDS011;16389;50.126;8.450;2024-02-21T12:55:53;4.53;;;2.90;;
29412;SDS011;16389;50.126;8.450;2024-02-21T12:58:19;4.53;;;2.53;;
29412;SDS011;16389;50.126;8.450;2024-02-21T13:00:45;5.13;;;2.45;;
29412;SDS011;16389;50.126;8.450;2024-02-21T13:03:11;5.35;;;2.35;;
29412;SDS011;16389;50.126;8.450;2024-02-21T13:05:37;3.58;;;2.00;;
29412;SDS011;16389;50.126;8.450;2024-02-21T13:08:04;4.13;;;2.70;;
29412;SDS011;16389;50.126;8.450;2024-02-21T13:10:30;7.40;;;2.97;;
29412;SDS011;16389;50.126;8.450;2024-02-21T13:12:58;5.78;;;3.00;;
29412;SDS011;16389;50.126;8.450;2024-02-21T13:15:24;4.40;;;3.17;;
29412;SDS011;16389;50.126;8.450;2024-02-21T13:17:49;5.75;;;3.20;;
29412;SDS011;16389;50.126;8.450;2024-02-21T13:20:15;4.65;;;2.63;;
29412;SDS011;16389;50.126;8.450;2024-02-21T13:22:40;6.38;;;2.55;;
29412;SDS011;16389;50.126;8.450;2024-02-21T13:25:06;7.15;;;2.97;;
29412;SDS011;16389;50.126;8.450;2024-02-21T13:27:35;8.75;;;4.25;;
29412;SDS011;16389;50.126;8.450;2024-02-21T13:30:01;7.25;;;2.47;;
29412;SDS011;16389;50.126;8.450;2024-02-21T13:32:30;5.43;;;3.40;;
29412;SDS011;16389;50.126;8.450;2024-02-21T13:34:57;6.78;;;3.38;;
29412;SDS011;16389;50.126;8.450;2024-02-21T13:37:25;11.13;;;2.85;;
29412;SDS011;16389;50.126;8.450;2024-02-21T13:39:52;4.55;;;2.95;;
29412;SDS011;16389;50.126;8.450;2024-02-21T13:42:18;4.07;;;2.67;;
29412;SDS011;16389;50.126;8.450;2024-02-21T13:44:44;5.93;;;2.65;;
29412;SDS011;16389;50.126;8.450;2024-02-21T13:47:10;6.22;;;4.18;;
29412;SDS011;16389;50.126;8.450;2024-02-21T13:49:38;5.63;;;2.55;;
29412;SDS011;16389;50.126;8.450;2024-02-21T13:52:04;7.47;;;2.60;;
29412;SDS011;16389;50.126;8.450;2024-02-21T13:54:30;7.10;;;3.58;;
29412;SDS011;16389;50.126;8.450;2024-02-21T13:56:56;5.80;;;2.45;;
29412;SDS011;16389;50.126;8.450;2024-02-21T13:59:21;5.00;;;2.40;;
29412;SDS011;16389;50.126;8.450;2024-02-21T14:01:47;5.22;;;2.25;;
29412;SDS011;16389;50.126;8.450;2024-02-21T14:04:16;4.68;;;2.13;;
29412;SDS011;16389;50.126;8.450;2024-02-21T14:06:41;5.60;;;2.33;;
29412;SDS011;16389;50.126;8.450;2024-02-21T14:09:08;6.03;;;2.45;;
29412;SDS011;16389;50.126;8.450;2024-02-21T14:11:37;4.32;;;2.15;;
29412;SDS011;16389;50.126;8.450;2024-02-21T14:14:04;6.13;;;2.75;;
29412;SDS011;16389;50.126;8.450;2024-02-21T14:16:30;7.40;;;2.40;;
29412;SDS011;16389;50.126;8.450;2024-02-21T14:18:57;4.40;;;2.45;;
29412;SDS011;16389;50.126;8.450;2024-02-21T14:21:22;4.65;;;2.05;;
29412;SDS011;16389;50.126;8.450;2024-02-21T14:23:49;3.45;;;2.20;;
29412;SDS011;16389;50.126;8.450;2024-02-21T14:26:15;5.93;;;2.78;;
29412;SDS011;16389;50.126;8.450;2024-02-21T14:28:41;7.07;;;2.03;;
29412;SDS011;16389;50.126;8.450;2024-02-21T14:31:06;5.97;;;2.13;;
29412;SDS011;16389;50.126;8.450;2024-02-21T14:33:34;3.05;;;1.80;;
29412;SDS011;16389;50.126;8.450;2024-02-21T14:36:00;3.28;;;1.90;;
29412;SDS011;16389;50.126;8.450;2024-02-21T14:38:27;5.47;;;2.70;;
29412;SDS011;16389;50.126;8.450;2024-02-21T14:40:53;9.25;;;2.83;;
29412;SDS011;16389;50.126;8.450;2024-02-21T14:43:18;4.28;;;2.00;;
29412;SDS011;16389;50.126;8.450;2024-02-21T14:45:46;6.15;;;2.58;;
29412;SDS011;16389;50.126;8.450;2024-02-21T14:48:15;3.90;;;2.00;;
29412;SDS011;16389;50.126;8.450;2024-02-21T14:50:41;6.07;;;2.92;;